sensor_id;sensor_type;location;lat;lon;timestamp;temperature;humidity
38458;DHT22;24239;48.058;10.486;2023-11-19T00:00:05;6.30;99.90
38458;DHT22;24239;48.058;10.486;2023-11-19T00:02:56;6.30;99.90
38458;DHT22;24239;48.058;10.486;2023-11-19T00:05:42;6.40;99.90
38458;DHT22;24239;48.058;10.486;2023-11-19T00:08:28;6.40;99.90
38458;DHT22;24239;48.058;10.486;2023-11-19T00:11:14;6.40;99.90
38458;DHT22;24239;48.058;10.486;2023-11-19T00:14:01;6.50;99.90
38458;DHT22;24239;48.058;10.486;2023-11-19T00:16:47;6.50;99.90
38458;DHT22;24239;48.058;10.486;2023-11-19T00:19:33;6.50;99.90
38458;DHT22;24239;48.058;10.486;2023-11-19T00:22:19;6.50;99.90
38458;DHT22;24239;48.058;10.486;2023-11-19T00:25:11;6.60;99.90
38458;DHT22;24239;48.058;10.486;2023-11-19T00:27:57;6.70;99.90
38458;DHT22;24239;48.058;10.486;2023-11-19T00:30:42;6.70;99.90
38458;DHT22;24239;48.058;10.486;2023-11-19T00:33:28;6.70;99.90
38458;DHT22;24239;48.058;10.486;2023-11-19T00:36:16;6.70;99.90
38458;DHT22;24239;48.058;10.486;2023-11-19T00:39:02;6.70;99.90
38458;DHT22;24239;48.058;10.486;2023-11-19T00:41:48;6.70;99.90
38458;DHT22;24239;48.058;10.486;2023-11-19T00:44:36;6.80;99.90
38458;DHT22;24239;48.058;10.486;2023-11-19T00:47:22;6.80;99.90
38458;DHT22;24239;48.058;10.486;2023-11-19T00:50:09;6.80;99.90
38458;DHT22;24239;48.058;10.486;2023-11-19T00:52:58;6.90;99.90
38458;DHT22;24239;48.058;10.486;2023-11-19T00:55:45;6.90;99.90
38458;DHT22;24239;48.058;10.486;2023-11-19T00:58:32;7.00;99.90
38458;DHT22;24239;48.058;10.486;2023-11-19T01:01:19;7.00;99.90
38458;DHT22;24239;48.058;10.486;2023-11-19T01:04:05;7.00;99.90
38458;DHT22;24239;48.058;10.486;2023-11-19T01:06:51;6.90;99.90
38458;DHT22;24239;48.058;10.486;2023-11-19T01:09:37;7.00;99.90
38458;DHT22;24239;48.058;10.486;2023-11-19T01:12:24;7.00;99.90
38458;DHT22;24239;48.058;10.486;2023-11-19T01:15:10;7.00;99.90
38458;DHT22;24239;48.058;10.486;2023-11-19T01:17:57;7.00;99.90
38458;DHT22;24239;48.058;10.486;2023-11-19T01:20:45;7.10;99.90
38458;DHT22;24239;48.058;10.486;2023-11-19T01:23:34;7.00;99.90
38458;DHT22;24239;48.058;10.486;2023-11-19T01:26:22;7.00;99.90
38458;DHT22;24239;48.058;10.486;2023-11-19T01:29:08;7.00;99.90
38458;DHT22;24239;48.058;10.486;2023-11-19T01:31:56;7.10;99.90
38458;DHT22;24239;48.058;10.486;2023-11-19T01:34:43;7.10;99.90
38458;DHT22;24239;48.058;10.486;2023-11-19T01:37:30;7.10;99.90
38458;DHT22;24239;48.058;10.486;2023-11-19T01:40:21;7.00;99.90
38458;DHT22;24239;48.058;10.486;2023-11-19T01:43:07;7.00;99.90
38458;DHT22;24239;48.058;10.486;2023-11-19T01:45:58;7.10;99.90
38458;DHT22;24239;48.058;10.486;2023-11-19T01:48:46;7.10;99.90
38458;DHT22;24239;48.058;10.486;2023-11-19T01:51:35;7.10;99.90
38458;DHT22;24239;48.058;10.486;2023-11-19T01:54:23;7.00;99.90
38458;DHT22;24239;48.058;10.486;2023-11-19T01:57:12;7.10;99.90
38458;DHT22;24239;48.058;10.486;2023-11-19T02:00:00;7.10;99.90
38458;DHT22;24239;48.058;10.486;2023-11-19T02:02:48;7.10;99.90
38458;DHT22;24239;48.058;10.486;2023-11-19T02:05:35;7.10;99.90
38458;DHT22;24239;48.058;10.486;2023-11-19T02:08:22;7.10;99.90
38458;DHT22;24239;48.058;10.486;2023-11-19T02:11:08;7.10;99.90
38458;DHT22;24239;48.058;10.486;2023-11-19T02:13:54;7.30;99.90
38458;DHT22;24239;48.058;10.486;2023-11-19T02:16:39;7.20;99.90
38458;DHT22;24239;48.058;10.486;2023-11-19T02:19:25;7.10;99.90
38458;DHT22;24239;48.058;10.486;2023-11-19T02:22:11;7.30;99.90
38458;DHT22;24239;48.058;10.486;2023-11-19T02:24:59;7.20;99.90
38458;DHT22;24239;48.058;10.486;2023-11-19T02:27:58;7.30;99.90
38458;DHT22;24239;48.058;10.486;2023-11-19T02:30:45;7.40;99.90
38458;DHT22;24239;48.058;10.486;2023-11-19T02:33:31;7.40;99.90
38458;DHT22;24239;48.058;10.486;2023-11-19T02:36:16;7.40;99.90
38458;DHT22;24239;48.058;10.486;2023-11-19T02:39:02;7.50;99.90
38458;DHT22;24239;48.058;10.486;2023-11-19T02:41:53;7.40;99.90
38458;DHT22;24239;48.058;10.486;2023-11-19T02:44:43;7.40;99.90
38458;DHT22;24239;48.058;10.486;2023-11-19T02:47:29;7.50;99.90
38458;DHT22;24239;48.058;10.486;2023-11-19T02:50:16;7.60;99.90
38458;DHT22;24239;48.058;10.486;2023-11-19T02:53:02;7.70;99.90
38458;DHT22;24239;48.058;10.486;2023-11-19T02:55:49;7.70;99.90
38458;DHT22;24239;48.058;10.486;2023-11-19T02:58:35;7.60;99.90
38458;DHT22;24239;48.058;10.486;2023-11-19T03:01:22;7.70;99.90
38458;DHT22;24239;48.058;10.486;2023-11-19T03:04:20;7.70;99.90
38458;DHT22;24239;48.058;10.486;2023-11-19T03:07:08;7.70;99.90
38458;DHT22;24239;48.058;10.486;2023-11-19T03:09:54;7.80;99.90
38458;DHT22;24239;48.058;10.486;2023-11-19T03:12:40;7.80;99.90
38458;DHT22;24239;48.058;10.486;2023-11-19T03:15:26;7.90;99.90
38458;DHT22;24239;48.058;10.486;2023-11-19T03:18:12;7.90;99.90
38458;DHT22;24239;48.058;10.486;2023-11-19T03:20:58;7.90;99.90
38458;DHT22;24239;48.058;10.486;2023-11-19T03:23:44;8.00;99.90
38458;DHT22;24239;48.058;10.486;2023-11-19T03:26:31;8.00;99.90
38458;DHT22;24239;48.058;10.486;2023-11-19T03:29:19;8.00;99.90
38458;DHT22;24239;48.058;10.486;2023-11-19T03:32:05;8.10;99.90
38458;DHT22;24239;48.058;10.486;2023-11-19T03:34:51;8.10;99.90
38458;DHT22;24239;48.058;10.486;2023-11-19T03:37:37;8.10;99.90
38458;DHT22;24239;48.058;10.486;2023-11-19T03:40:22;8.10;99.90
38458;DHT22;24239;48.058;10.486;2023-11-19T03:43:10;8.10;99.90
38458;DHT22;24239;48.058;10.486;2023-11-19T03:45:58;8.20;99.90
38458;DHT22;24239;48.058;10.486;2023-11-19T03:48:44;8.10;99.90
38458;DHT22;24239;48.058;10.486;2023-11-19T03:51:31;8.10;99.90
38458;DHT22;24239;48.058;10.486;2023-11-19T03:54:17;8.10;99.90
38458;DHT22;24239;48.058;10.486;2023-11-19T03:57:03;8.20;99.90
38458;DHT22;24239;48.058;10.486;2023-11-19T03:59:49;8.20;99.90
38458;DHT22;24239;48.058;10.486;2023-11-19T04:02:35;8.20;99.90
38458;DHT22;24239;48.058;10.486;2023-11-19T04:05:21;8.10;99.90
38458;DHT22;24239;48.058;10.486;2023-11-19T04:08:07;8.20;99.90
38458;DHT22;24239;48.058;10.486;2023-11-19T04:10:53;8.10;99.90
38458;DHT22;24239;48.058;10.486;2023-11-19T04:13:44;8.20;99.90
38458;DHT22;24239;48.058;10.486;2023-11-19T04:16:29;8.10;99.90
38458;DHT22;24239;48.058;10.486;2023-11-19T04:19:17;8.20;99.90
38458;DHT22;24239;48.058;10.486;2023-11-19T04:22:03;8.20;99.90
38458;DHT22;24239;48.058;10.486;2023-11-19T04:24:49;8.20;99.90
38458;DHT22;24239;48.058;10.486;2023-11-19T04:27:37;8.20;99.90
38458;DHT22;24239;48.058;10.486;2023-11-19T04:30:23;8.20;99.90
38458;DHT22;24239;48.058;10.486;2023-11-19T04:33:09;8.20;99.90
38458;DHT22;24239;48.058;10.486;2023-11-19T04:35:55;8.10;99.90
38458;DHT22;24239;48.058;10.486;2023-11-19T04:38:40;8.30;99.90
38458;DHT22;24239;48.058;10.486;2023-11-19T04:41:27;8.20;99.90
38458;DHT22;24239;48.058;10.486;2023-11-19T04:44:16;8.10;99.90
38458;DHT22;24239;48.058;10.486;2023-11-19T04:47:01;8.10;99.90
38458;DHT22;24239;48.058;10.486;2023-11-19T04:49:47;8.10;99.90
38458;DHT22;24239;48.058;10.486;2023-11-19T04:52:34;8.10;99.90
38458;DHT22;24239;48.058;10.486;2023-11-19T04:55:25;8.10;99.90
38458;DHT22;24239;48.058;10.486;2023-11-19T04:58:14;8.10;99.90
38458;DHT22;24239;48.058;10.486;2023-11-19T05:01:01;8.10;99.90
38458;DHT22;24239;48.058;10.486;2023-11-19T05:03:50;8.20;99.90
38458;DHT22;24239;48.058;10.486;2023-11-19T05:06:36;8.10;99.90
38458;DHT22;24239;48.058;10.486;2023-11-19T05:09:23;8.10;99.90
38458;DHT22;24239;48.058;10.486;2023-11-19T05:12:09;8.20;99.90
38458;DHT22;24239;48.058;10.486;2023-11-19T05:14:57;8.20;99.90
38458;DHT22;24239;48.058;10.486;2023-11-19T05:17:43;8.20;99.90
38458;DHT22;24239;48.058;10.486;2023-11-19T05:20:29;8.20;99.90
38458;DHT22;24239;48.058;10.486;2023-11-19T05:23:15;8.30;99.90
38458;DHT22;24239;48.058;10.486;2023-11-19T05:26:01;8.30;99.90
38458;DHT22;24239;48.058;10.486;2023-11-19T05:28:47;8.30;99.90
38458;DHT22;24239;48.058;10.486;2023-11-19T05:31:33;8.40;99.90
38458;DHT22;24239;48.058;10.486;2023-11-19T05:34:19;8.50;99.90
38458;DHT22;24239;48.058;10.486;2023-11-19T05:37:04;8.50;99.90
38458;DHT22;24239;48.058;10.486;2023-11-19T05:39:51;8.50;99.90
38458;DHT22;24239;48.058;10.486;2023-11-19T05:42:37;8.50;99.90
38458;DHT22;24239;48.058;10.486;2023-11-19T05:45:23;8.50;99.90
38458;DHT22;24239;48.058;10.486;2023-11-19T05:48:10;8.50;99.90
38458;DHT22;24239;48.058;10.486;2023-11-19T05:50:56;8.50;99.90
38458;DHT22;24239;48.058;10.486;2023-11-19T05:53:42;8.50;99.90
38458;DHT22;24239;48.058;10.486;2023-11-19T05:56:32;8.60;99.90
38458;DHT22;24239;48.058;10.486;2023-11-19T05:59:18;8.60;99.90
38458;DHT22;24239;48.058;10.486;2023-11-19T06:02:04;8.50;99.90
38458;DHT22;24239;48.058;10.486;2023-11-19T06:04:50;8.60;99.90
38458;DHT22;24239;48.058;10.486;2023-11-19T06:07:36;8.70;99.90
38458;DHT22;24239;48.058;10.486;2023-11-19T06:10:25;8.60;99.90
38458;DHT22;24239;48.058;10.486;2023-11-19T06:13:17;8.70;99.90
38458;DHT22;24239;48.058;10.486;2023-11-19T06:16:03;8.70;99.90
38458;DHT22;24239;48.058;10.486;2023-11-19T06:18:49;8.70;99.90
38458;DHT22;24239;48.058;10.486;2023-11-19T06:21:36;8.70;99.90
38458;DHT22;24239;48.058;10.486;2023-11-19T06:24:22;8.70;99.90
38458;DHT22;24239;48.058;10.486;2023-11-19T06:27:08;8.70;99.90
38458;DHT22;24239;48.058;10.486;2023-11-19T06:29:56;8.70;99.90
38458;DHT22;24239;48.058;10.486;2023-11-19T06:32:42;8.80;99.90
38458;DHT22;24239;48.058;10.486;2023-11-19T06:35:28;8.90;99.90
38458;DHT22;24239;48.058;10.486;2023-11-19T06:38:21;8.90;99.90
38458;DHT22;24239;48.058;10.486;2023-11-19T06:41:08;8.90;99.90
38458;DHT22;24239;48.058;10.486;2023-11-19T06:43:57;8.90;99.90
38458;DHT22;24239;48.058;10.486;2023-11-19T06:46:45;8.90;99.90
38458;DHT22;24239;48.058;10.486;2023-11-19T06:49:32;9.00;99.90
38458;DHT22;24239;48.058;10.486;2023-11-19T06:52:18;9.00;99.90
38458;DHT22;24239;48.058;10.486;2023-11-19T06:55:04;9.10;99.90
38458;DHT22;24239;48.058;10.486;2023-11-19T06:57:50;9.10;99.90
38458;DHT22;24239;48.058;10.486;2023-11-19T07:00:36;9.20;99.90
38458;DHT22;24239;48.058;10.486;2023-11-19T07:03:22;9.30;99.90
38458;DHT22;24239;48.058;10.486;2023-11-19T07:06:09;9.20;99.90
38458;DHT22;24239;48.058;10.486;2023-11-19T07:08:55;9.20;99.90
38458;DHT22;24239;48.058;10.486;2023-11-19T07:11:45;9.30;99.90
38458;DHT22;24239;48.058;10.486;2023-11-19T07:14:31;9.30;99.90
38458;DHT22;24239;48.058;10.486;2023-11-19T07:17:20;9.30;99.90
38458;DHT22;24239;48.058;10.486;2023-11-19T07:20:07;9.40;99.90
38458;DHT22;24239;48.058;10.486;2023-11-19T07:22:53;9.40;99.90
38458;DHT22;24239;48.058;10.486;2023-11-19T07:25:40;9.40;99.90
38458;DHT22;24239;48.058;10.486;2023-11-19T07:28:26;9.40;99.90
38458;DHT22;24239;48.058;10.486;2023-11-19T07:31:17;9.40;99.90
38458;DHT22;24239;48.058;10.486;2023-11-19T07:34:09;9.40;99.90
38458;DHT22;24239;48.058;10.486;2023-11-19T07:36:56;9.60;99.90
38458;DHT22;24239;48.058;10.486;2023-11-19T07:39:52;9.60;99.90
38458;DHT22;24239;48.058;10.486;2023-11-19T07:42:38;9.60;99.90
38458;DHT22;24239;48.058;10.486;2023-11-19T07:45:25;9.70;99.90
38458;DHT22;24239;48.058;10.486;2023-11-19T07:48:13;9.70;99.90
38458;DHT22;24239;48.058;10.486;2023-11-19T07:51:02;9.70;99.90
38458;DHT22;24239;48.058;10.486;2023-11-19T07:53:49;9.70;99.90
38458;DHT22;24239;48.058;10.486;2023-11-19T07:56:36;9.70;99.90
38458;DHT22;24239;48.058;10.486;2023-11-19T07:59:23;9.70;99.90
38458;DHT22;24239;48.058;10.486;2023-11-19T08:02:09;9.70;99.90
38458;DHT22;24239;48.058;10.486;2023-11-19T08:04:55;9.80;99.90
38458;DHT22;24239;48.058;10.486;2023-11-19T08:07:41;9.70;99.90
38458;DHT22;24239;48.058;10.486;2023-11-19T08:10:27;9.70;99.90
38458;DHT22;24239;48.058;10.486;2023-11-19T08:13:15;9.80;99.90
38458;DHT22;24239;48.058;10.486;2023-11-19T08:16:00;9.80;99.90
38458;DHT22;24239;48.058;10.486;2023-11-19T08:18:46;9.90;99.90
38458;DHT22;24239;48.058;10.486;2023-11-19T08:21:32;9.90;99.90
38458;DHT22;24239;48.058;10.486;2023-11-19T08:24:18;9.90;99.90
38458;DHT22;24239;48.058;10.486;2023-11-19T08:27:04;10.00;99.90
38458;DHT22;24239;48.058;10.486;2023-11-19T08:29:51;10.00;99.90
38458;DHT22;24239;48.058;10.486;2023-11-19T08:32:37;10.10;99.90
38458;DHT22;24239;48.058;10.486;2023-11-19T08:35:24;10.10;99.90
38458;DHT22;24239;48.058;10.486;2023-11-19T08:38:10;10.20;99.90
38458;DHT22;24239;48.058;10.486;2023-11-19T08:40:56;10.20;99.90
38458;DHT22;24239;48.058;10.486;2023-11-19T08:43:45;10.30;99.90
38458;DHT22;24239;48.058;10.486;2023-11-19T08:46:33;10.30;99.90
38458;DHT22;24239;48.058;10.486;2023-11-19T08:49:20;10.40;99.90
38458;DHT22;24239;48.058;10.486;2023-11-19T08:52:06;10.50;99.90
38458;DHT22;24239;48.058;10.486;2023-11-19T08:54:53;10.50;99.90
38458;DHT22;24239;48.058;10.486;2023-11-19T08:57:39;10.60;99.90
38458;DHT22;24239;48.058;10.486;2023-11-19T09:00:25;10.60;99.90
38458;DHT22;24239;48.058;10.486;2023-11-19T09:03:11;10.70;99.90
38458;DHT22;24239;48.058;10.486;2023-11-19T09:05:56;10.60;99.90
38458;DHT22;24239;48.058;10.486;2023-11-19T09:08:43;10.60;99.90
38458;DHT22;24239;48.058;10.486;2023-11-19T09:11:29;10.70;99.90
38458;DHT22;24239;48.058;10.486;2023-11-19T09:14:15;10.60;99.90
38458;DHT22;24239;48.058;10.486;2023-11-19T09:17:01;10.70;99.90
38458;DHT22;24239;48.058;10.486;2023-11-19T09:19:47;10.60;99.90
38458;DHT22;24239;48.058;10.486;2023-11-19T09:22:33;10.60;99.90
38458;DHT22;24239;48.058;10.486;2023-11-19T09:25:19;10.60;99.90
38458;DHT22;24239;48.058;10.486;2023-11-19T09:28:06;10.70;99.90
38458;DHT22;24239;48.058;10.486;2023-11-19T09:30:54;10.70;99.90
38458;DHT22;24239;48.058;10.486;2023-11-19T09:33:40;10.80;99.90
38458;DHT22;24239;48.058;10.486;2023-11-19T09:36:28;10.90;99.90
38458;DHT22;24239;48.058;10.486;2023-11-19T09:39:14;11.00;99.90
38458;DHT22;24239;48.058;10.486;2023-11-19T09:42:03;11.00;99.90
38458;DHT22;24239;48.058;10.486;2023-11-19T09:44:49;11.10;99.90
38458;DHT22;24239;48.058;10.486;2023-11-19T09:47:35;11.20;99.90
38458;DHT22;24239;48.058;10.486;2023-11-19T09:50:21;11.30;99.90
38458;DHT22;24239;48.058;10.486;2023-11-19T09:53:07;11.40;99.90
38458;DHT22;24239;48.058;10.486;2023-11-19T09:55:53;11.40;99.90
38458;DHT22;24239;48.058;10.486;2023-11-19T09:58:40;11.40;99.90
38458;DHT22;24239;48.058;10.486;2023-11-19T10:01:27;11.40;99.90
38458;DHT22;24239;48.058;10.486;2023-11-19T10:04:15;11.30;99.90
38458;DHT22;24239;48.058;10.486;2023-11-19T10:07:01;11.30;99.90
38458;DHT22;24239;48.058;10.486;2023-11-19T10:09:50;11.30;99.90
38458;DHT22;24239;48.058;10.486;2023-11-19T10:12:37;11.30;99.90
38458;DHT22;24239;48.058;10.486;2023-11-19T10:15:25;11.30;99.90
38458;DHT22;24239;48.058;10.486;2023-11-19T10:18:13;11.40;99.90
38458;DHT22;24239;48.058;10.486;2023-11-19T10:20:59;11.40;99.90
38458;DHT22;24239;48.058;10.486;2023-11-19T10:23:49;11.40;99.90
38458;DHT22;24239;48.058;10.486;2023-11-19T10:26:39;11.50;99.90
38458;DHT22;24239;48.058;10.486;2023-11-19T10:29:27;11.50;99.90
38458;DHT22;24239;48.058;10.486;2023-11-19T10:32:14;11.60;99.90
38458;DHT22;24239;48.058;10.486;2023-11-19T10:35:05;11.60;99.90
38458;DHT22;24239;48.058;10.486;2023-11-19T10:37:52;11.50;99.90
38458;DHT22;24239;48.058;10.486;2023-11-19T10:40:38;11.50;99.90
38458;DHT22;24239;48.058;10.486;2023-11-19T10:43:27;11.60;99.90
38458;DHT22;24239;48.058;10.486;2023-11-19T10:46:14;11.50;99.90
38458;DHT22;24239;48.058;10.486;2023-11-19T10:49:08;11.60;99.90
38458;DHT22;24239;48.058;10.486;2023-11-19T10:51:55;11.80;99.90
38458;DHT22;24239;48.058;10.486;2023-11-19T10:54:43;11.90;99.90
38458;DHT22;24239;48.058;10.486;2023-11-19T10:57:31;12.00;99.90
38458;DHT22;24239;48.058;10.486;2023-11-19T11:00:18;12.00;99.90
38458;DHT22;24239;48.058;10.486;2023-11-19T11:03:39;12.10;99.90
38458;DHT22;24239;48.058;10.486;2023-11-19T11:06:18;12.10;99.90
38458;DHT22;24239;48.058;10.486;2023-11-19T11:09:09;12.10;99.90
38458;DHT22;24239;48.058;10.486;2023-11-19T11:11:58;12.10;99.90
38458;DHT22;24239;48.058;10.486;2023-11-19T11:14:44;12.20;99.90
38458;DHT22;24239;48.058;10.486;2023-11-19T11:17:36;12.10;99.90
38458;DHT22;24239;48.058;10.486;2023-11-19T11:20:25;12.20;99.90
38458;DHT22;24239;48.058;10.486;2023-11-19T11:28:59;12.10;99.90
38458;DHT22;24239;48.058;10.486;2023-11-19T11:37:43;12.10;99.90
38458;DHT22;24239;48.058;10.486;2023-11-19T11:40:33;12.10;99.90
38458;DHT22;24239;48.058;10.486;2023-11-19T11:49:24;12.10;99.90
38458;DHT22;24239;48.058;10.486;2023-11-19T11:52:11;12.30;99.90
38458;DHT22;24239;48.058;10.486;2023-11-19T11:55:05;12.30;99.90
38458;DHT22;24239;48.058;10.486;2023-11-19T11:57:55;12.40;99.90
38458;DHT22;24239;48.058;10.486;2023-11-19T12:00:41;12.40;99.90
38458;DHT22;24239;48.058;10.486;2023-11-19T12:03:28;12.50;99.90
38458;DHT22;24239;48.058;10.486;2023-11-19T12:06:15;12.30;99.90
38458;DHT22;24239;48.058;10.486;2023-11-19T12:09:00;12.30;99.90
38458;DHT22;24239;48.058;10.486;2023-11-19T12:12:00;12.30;99.90
38458;DHT22;24239;48.058;10.486;2023-11-19T12:17:50;12.50;99.90
38458;DHT22;24239;48.058;10.486;2023-11-19T12:20:36;12.40;99.90
38458;DHT22;24239;48.058;10.486;2023-11-19T12:23:24;12.30;99.90
38458;DHT22;24239;48.058;10.486;2023-11-19T12:26:20;12.40;99.90
38458;DHT22;24239;48.058;10.486;2023-11-19T12:29:06;12.30;99.90
38458;DHT22;24239;48.058;10.486;2023-11-19T12:31:53;12.40;99.90
38458;DHT22;24239;48.058;10.486;2023-11-19T12:34:40;12.40;99.90
38458;DHT22;24239;48.058;10.486;2023-11-19T12:37:26;12.40;99.90
38458;DHT22;24239;48.058;10.486;2023-11-19T12:40:15;12.60;99.90
38458;DHT22;24239;48.058;10.486;2023-11-19T12:43:04;12.70;99.90
38458;DHT22;24239;48.058;10.486;2023-11-19T12:45:50;12.80;99.90
38458;DHT22;24239;48.058;10.486;2023-11-19T12:48:36;12.80;99.90
38458;DHT22;24239;48.058;10.486;2023-11-19T12:51:22;12.90;99.90
38458;DHT22;24239;48.058;10.486;2023-11-19T12:54:09;13.00;99.90
38458;DHT22;24239;48.058;10.486;2023-11-19T12:56:57;13.10;99.90
38458;DHT22;24239;48.058;10.486;2023-11-19T12:59:56;13.10;99.90
38458;DHT22;24239;48.058;10.486;2023-11-19T13:02:49;13.10;99.90
38458;DHT22;24239;48.058;10.486;2023-11-19T13:05:37;13.10;99.90
38458;DHT22;24239;48.058;10.486;2023-11-19T13:08:24;13.00;99.90
38458;DHT22;24239;48.058;10.486;2023-11-19T13:11:11;13.10;99.90
38458;DHT22;24239;48.058;10.486;2023-11-19T13:14:01;13.00;99.90
38458;DHT22;24239;48.058;10.486;2023-11-19T13:16:49;12.90;99.90
38458;DHT22;24239;48.058;10.486;2023-11-19T13:19:37;12.80;99.90
38458;DHT22;24239;48.058;10.486;2023-11-19T13:22:24;12.70;99.90
38458;DHT22;24239;48.058;10.486;2023-11-19T13:25:10;12.70;99.90
38458;DHT22;24239;48.058;10.486;2023-11-19T13:27:58;12.70;99.90
38458;DHT22;24239;48.058;10.486;2023-11-19T13:30:44;12.70;99.90
38458;DHT22;24239;48.058;10.486;2023-11-19T13:33:30;12.70;99.90
38458;DHT22;24239;48.058;10.486;2023-11-19T13:36:16;12.70;99.90
38458;DHT22;24239;48.058;10.486;2023-11-19T13:39:02;12.60;99.90
38458;DHT22;24239;48.058;10.486;2023-11-19T13:41:49;12.60;99.90
38458;DHT22;24239;48.058;10.486;2023-11-19T13:44:39;12.60;99.90
38458;DHT22;24239;48.058;10.486;2023-11-19T13:47:28;12.60;99.90
38458;DHT22;24239;48.058;10.486;2023-11-19T13:50:14;12.70;99.90
38458;DHT22;24239;48.058;10.486;2023-11-19T13:53:00;12.70;99.90
38458;DHT22;24239;48.058;10.486;2023-11-19T13:55:46;12.60;99.90
38458;DHT22;24239;48.058;10.486;2023-11-19T13:58:33;12.50;99.90
38458;DHT22;24239;48.058;10.486;2023-11-19T14:01:19;12.50;99.90
38458;DHT22;24239;48.058;10.486;2023-11-19T14:04:05;12.40;99.90
38458;DHT22;24239;48.058;10.486;2023-11-19T14:06:51;12.30;99.90
38458;DHT22;24239;48.058;10.486;2023-11-19T14:09:38;12.30;99.90
38458;DHT22;24239;48.058;10.486;2023-11-19T14:12:27;12.30;99.90
38458;DHT22;24239;48.058;10.486;2023-11-19T14:15:13;12.30;99.90
38458;DHT22;24239;48.058;10.486;2023-11-19T14:18:00;12.20;99.90
38458;DHT22;24239;48.058;10.486;2023-11-19T14:20:48;12.10;99.90
38458;DHT22;24239;48.058;10.486;2023-11-19T14:23:34;12.10;99.90
38458;DHT22;24239;48.058;10.486;2023-11-19T14:26:20;12.00;99.90
38458;DHT22;24239;48.058;10.486;2023-11-19T14:29:06;12.10;99.90
38458;DHT22;24239;48.058;10.486;2023-11-19T14:31:53;12.10;99.90
38458;DHT22;24239;48.058;10.486;2023-11-19T14:34:39;12.00;99.90
38458;DHT22;24239;48.058;10.486;2023-11-19T14:37:25;12.10;99.90
38458;DHT22;24239;48.058;10.486;2023-11-19T14:40:11;12.00;99.90
38458;DHT22;24239;48.058;10.486;2023-11-19T14:42:59;11.90;99.90
38458;DHT22;24239;48.058;10.486;2023-11-19T14:45:45;11.90;99.90
38458;DHT22;24239;48.058;10.486;2023-11-19T14:48:31;12.00;99.90
38458;DHT22;24239;48.058;10.486;2023-11-19T14:51:18;11.90;99.90
38458;DHT22;24239;48.058;10.486;2023-11-19T14:54:04;11.80;99.90
38458;DHT22;24239;48.058;10.486;2023-11-19T14:56:50;11.80;99.90
38458;DHT22;24239;48.058;10.486;2023-11-19T14:59:37;11.70;99.90
38458;DHT22;24239;48.058;10.486;2023-11-19T15:02:25;11.60;99.90
38458;DHT22;24239;48.058;10.486;2023-11-19T15:05:12;11.60;99.90
38458;DHT22;24239;48.058;10.486;2023-11-19T15:08:01;11.60;99.90
38458;DHT22;24239;48.058;10.486;2023-11-19T15:10:50;11.60;99.90
38458;DHT22;24239;48.058;10.486;2023-11-19T15:13:36;11.40;99.90
38458;DHT22;24239;48.058;10.486;2023-11-19T15:16:23;11.50;99.90
38458;DHT22;24239;48.058;10.486;2023-11-19T15:19:16;11.50;99.90
38458;DHT22;24239;48.058;10.486;2023-11-19T15:22:02;11.40;99.90
38458;DHT22;24239;48.058;10.486;2023-11-19T15:24:51;11.40;99.90
38458;DHT22;24239;48.058;10.486;2023-11-19T15:27:38;11.30;99.90
38458;DHT22;24239;48.058;10.486;2023-11-19T15:30:24;11.40;99.90
38458;DHT22;24239;48.058;10.486;2023-11-19T15:33:11;11.30;99.90
38458;DHT22;24239;48.058;10.486;2023-11-19T15:35:58;11.20;99.90
38458;DHT22;24239;48.058;10.486;2023-11-19T15:38:47;11.20;99.90
38458;DHT22;24239;48.058;10.486;2023-11-19T15:41:35;11.20;99.90
38458;DHT22;24239;48.058;10.486;2023-11-19T15:44:22;11.30;99.90
38458;DHT22;24239;48.058;10.486;2023-11-19T15:47:11;11.20;99.90
38458;DHT22;24239;48.058;10.486;2023-11-19T15:50:01;11.20;99.90
38458;DHT22;24239;48.058;10.486;2023-11-19T15:52:50;11.30;99.90
38458;DHT22;24239;48.058;10.486;2023-11-19T15:55:38;11.10;99.90
38458;DHT22;24239;48.058;10.486;2023-11-19T15:58:24;11.10;99.90
38458;DHT22;24239;48.058;10.486;2023-11-19T16:01:10;11.20;99.90
38458;DHT22;24239;48.058;10.486;2023-11-19T16:03:58;11.10;99.90
38458;DHT22;24239;48.058;10.486;2023-11-19T16:06:44;10.90;99.90
38458;DHT22;24239;48.058;10.486;2023-11-19T16:09:30;11.00;99.90
38458;DHT22;24239;48.058;10.486;2023-11-19T16:12:16;11.00;99.90
38458;DHT22;24239;48.058;10.486;2023-11-19T16:15:02;11.00;99.90
38458;DHT22;24239;48.058;10.486;2023-11-19T16:17:49;10.90;99.90
38458;DHT22;24239;48.058;10.486;2023-11-19T16:20:35;10.90;99.90
38458;DHT22;24239;48.058;10.486;2023-11-19T16:23:21;10.90;99.90
38458;DHT22;24239;48.058;10.486;2023-11-19T16:26:07;10.80;99.90
38458;DHT22;24239;48.058;10.486;2023-11-19T16:28:53;10.90;99.90
38458;DHT22;24239;48.058;10.486;2023-11-19T16:31:39;10.90;99.90
38458;DHT22;24239;48.058;10.486;2023-11-19T16:34:28;10.80;99.90
38458;DHT22;24239;48.058;10.486;2023-11-19T16:37:14;10.80;99.90
38458;DHT22;24239;48.058;10.486;2023-11-19T16:40:01;10.70;99.90
38458;DHT22;24239;48.058;10.486;2023-11-19T16:42:58;10.60;99.90
38458;DHT22;24239;48.058;10.486;2023-11-19T16:45:44;10.60;99.90
38458;DHT22;24239;48.058;10.486;2023-11-19T16:48:31;10.60;99.90
38458;DHT22;24239;48.058;10.486;2023-11-19T16:51:16;10.80;99.90
38458;DHT22;24239;48.058;10.486;2023-11-19T16:54:02;10.80;99.90
38458;DHT22;24239;48.058;10.486;2023-11-19T16:56:48;10.80;99.90
38458;DHT22;24239;48.058;10.486;2023-11-19T16:59:34;10.80;99.90
38458;DHT22;24239;48.058;10.486;2023-11-19T17:02:20;10.80;99.90
38458;DHT22;24239;48.058;10.486;2023-11-19T17:05:07;10.80;99.90
38458;DHT22;24239;48.058;10.486;2023-11-19T17:07:53;10.80;99.90
38458;DHT22;24239;48.058;10.486;2023-11-19T17:10:41;10.80;99.90
38458;DHT22;24239;48.058;10.486;2023-11-19T17:13:30;10.80;99.90
38458;DHT22;24239;48.058;10.486;2023-11-19T17:16:16;10.80;99.90
38458;DHT22;24239;48.058;10.486;2023-11-19T17:19:04;10.80;99.90
38458;DHT22;24239;48.058;10.486;2023-11-19T17:21:52;10.90;99.90
38458;DHT22;24239;48.058;10.486;2023-11-19T17:24:40;10.90;99.90
38458;DHT22;24239;48.058;10.486;2023-11-19T17:27:27;10.90;99.90
38458;DHT22;24239;48.058;10.486;2023-11-19T17:30:13;10.80;99.90
38458;DHT22;24239;48.058;10.486;2023-11-19T17:33:00;10.80;99.90
38458;DHT22;24239;48.058;10.486;2023-11-19T17:35:46;10.70;99.90
38458;DHT22;24239;48.058;10.486;2023-11-19T17:38:32;10.80;99.90
38458;DHT22;24239;48.058;10.486;2023-11-19T17:41:18;10.70;99.90
38458;DHT22;24239;48.058;10.486;2023-11-19T17:44:04;10.70;99.90
38458;DHT22;24239;48.058;10.486;2023-11-19T17:46:50;10.60;99.90